createdAt,value
2018-12-13T00:00:18.781Z,3.80
2018-12-13T00:05:22.405Z,5.25
2018-12-13T00:10:26.116Z,6.75
2018-12-13T00:15:32.729Z,5.75
2018-12-13T00:20:39.512Z,3.00
2018-12-13T00:25:43.155Z,3.00
2018-12-13T00:30:46.834Z,4.00
2018-12-13T00:35:50.614Z,4.50
2018-12-13T00:40:54.302Z,4.40
2018-12-13T00:45:58.247Z,4.00
2018-12-13T00:51:02.150Z,4.00
2018-12-13T00:56:05.933Z,4.60
2018-12-13T01:01:10.565Z,2.60
2018-12-13T01:06:14.432Z,4.00
2018-12-13T01:11:18.151Z,4.00
2018-12-13T01:16:23.781Z,4.00
2018-12-13T01:21:27.464Z,3.20
2018-12-13T01:26:31.108Z,5.25
2018-12-13T01:31:34.641Z,3.50
2018-12-13T01:36:44.642Z,4.20
2018-12-13T01:41:48.170Z,5.20
2018-12-13T01:46:51.706Z,4.80
2018-12-13T01:51:55.289Z,5.00
2018-12-13T01:56:58.819Z,3.00
2018-12-13T02:02:02.425Z,2.75
2018-12-13T02:07:05.978Z,2.00
2018-12-13T02:12:09.580Z,3.00
2018-12-13T02:17:13.151Z,2.80
2018-12-13T02:22:16.807Z,5.00
2018-12-13T02:27:20.312Z,3.20
2018-12-13T02:32:23.855Z,6.00
2018-12-13T02:37:27.451Z,4.25
2018-12-13T02:42:31.090Z,3.00
2018-12-13T02:47:34.824Z,5.00
2018-12-13T02:52:38.578Z,5.00
2018-12-13T02:57:42.479Z,4.80
2018-12-13T03:02:46.051Z,4.60
2018-12-13T03:07:49.577Z,4.25
2018-12-13T03:12:53.127Z,4.00
2018-12-13T03:17:56.687Z,3.25
2018-12-13T03:23:00.225Z,3.60
2018-12-13T03:28:03.739Z,3.75
2018-12-13T03:33:07.256Z,3.40
2018-12-13T03:38:10.963Z,2.25
2018-12-13T03:43:14.597Z,5.75
2018-12-13T03:48:18.210Z,6.00
2018-12-13T03:53:21.847Z,2.20
2018-12-13T03:58:25.456Z,2.00
2018-12-13T04:03:29.035Z,3.75
2018-12-13T04:08:32.738Z,2.50
2018-12-13T04:13:36.344Z,5.00
2018-12-13T04:18:40.117Z,4.00
2018-12-13T04:23:43.720Z,4.00
2018-12-13T04:28:47.385Z,3.75
2018-12-13T04:33:51.100Z,4.00
2018-12-13T04:38:55.586Z,3.25
2018-12-13T04:43:59.176Z,2.60
2018-12-13T04:49:02.780Z,4.50
2018-12-13T04:54:06.401Z,2.60
2018-12-13T04:59:10.041Z,5.20
2018-12-13T05:04:13.573Z,3.50
2018-12-13T05:09:17.181Z,3.00
2018-12-13T05:14:20.751Z,3.00
2018-12-13T05:19:24.283Z,6.00
2018-12-13T05:24:27.871Z,3.75
2018-12-13T05:29:31.474Z,3.00
2018-12-13T05:34:37.874Z,4.80
2018-12-13T05:39:41.479Z,4.00
2018-12-13T05:44:45.130Z,5.00
2018-12-13T05:49:48.765Z,2.50
2018-12-13T05:54:52.278Z,6.00
2018-12-13T05:59:55.980Z,3.40
2018-12-13T06:04:59.511Z,3.25
2018-12-13T06:10:03.605Z,5.20
2018-12-13T06:15:07.561Z,4.20
2018-12-13T06:20:11.153Z,4.00
2018-12-13T06:25:14.700Z,3.20
2018-12-13T06:30:18.242Z,4.00
2018-12-13T06:35:21.753Z,3.80
2018-12-13T06:40:25.274Z,7.40
2018-12-13T06:45:28.937Z,3.00
2018-12-13T06:50:32.573Z,3.50
2018-12-13T06:55:35.921Z,3.50
2018-12-13T07:00:39.323Z,2.75
2018-12-13T07:05:42.914Z,3.00
2018-12-13T07:10:46.292Z,3.50
2018-12-13T07:15:49.695Z,3.00
2018-12-13T07:20:53.204Z,5.40
2018-12-13T07:25:56.636Z,3.60
2018-12-13T07:31:00.247Z,4.25
2018-12-13T07:36:03.761Z,4.40
2018-12-13T07:41:07.202Z,2.75
2018-12-13T07:46:10.592Z,3.50
2018-12-13T07:51:14.012Z,30.00
2018-12-13T07:56:17.402Z,33.75
2018-12-13T08:01:20.986Z,36.00
2018-12-13T08:06:24.465Z,48.25
2018-12-13T08:11:27.904Z,34.00
2018-12-13T08:16:31.260Z,28.20
2018-12-13T08:21:34.677Z,32.00
2018-12-13T08:26:38.053Z,34.25
2018-12-13T08:31:41.483Z,30.40
2018-12-13T08:36:45.017Z,26.00
2018-12-13T08:41:48.743Z,27.75
2018-12-13T08:46:52.261Z,25.20
2018-12-13T08:51:55.794Z,27.00
2018-12-13T08:56:59.188Z,25.60
2018-12-13T09:02:03.262Z,24.00
2018-12-13T09:07:09.734Z,20.00
2018-12-13T09:12:13.365Z,21.00
2018-12-13T09:17:16.896Z,22.00
2018-12-13T09:22:20.385Z,20.25
2018-12-13T09:27:23.726Z,19.40
2018-12-13T09:32:27.335Z,19.25
2018-12-13T09:37:31.001Z,21.80
2018-12-13T09:42:34.702Z,23.25
2018-12-13T09:47:38.409Z,18.60
2018-12-13T09:52:41.890Z,21.40
2018-12-13T09:57:45.512Z,15.25
2018-12-13T10:02:48.992Z,19.20
2018-12-13T10:07:52.962Z,20.00
2018-12-13T10:12:56.667Z,16.25
2018-12-13T10:18:00.330Z,16.20
2018-12-13T10:23:03.894Z,14.80
2018-12-13T10:28:07.711Z,14.75
2018-12-13T10:33:11.390Z,20.00
2018-12-13T10:38:15.024Z,17.20
2018-12-13T10:43:18.671Z,18.25
2018-12-13T10:48:22.249Z,13.80
2018-12-13T10:53:25.887Z,17.80
2018-12-13T10:58:29.525Z,16.80
2018-12-13T11:03:36.018Z,20.00
2018-12-13T11:08:39.633Z,17.50
2018-12-13T11:13:43.222Z,17.00
2018-12-13T11:18:47.365Z,14.80
2018-12-13T11:23:50.973Z,16.50
2018-12-13T11:31:02.386Z,16.00
2018-12-13T11:36:06.041Z,13.40
2018-12-13T11:41:09.892Z,16.80
2018-12-13T11:46:13.607Z,16.00
2018-12-13T11:51:17.249Z,16.40
2018-12-13T11:56:21.081Z,15.80
2018-12-13T12:01:24.818Z,16.00
2018-12-13T12:06:28.674Z,16.25
2018-12-13T12:11:32.569Z,13.25
2018-12-13T12:16:36.348Z,10.80
2018-12-13T12:21:39.988Z,14.00
2018-12-13T12:26:43.718Z,16.75
2018-12-13T12:31:47.324Z,12.00
2018-12-13T12:36:50.995Z,12.60
2018-12-13T12:41:54.691Z,16.25
2018-12-13T12:46:58.348Z,14.40
2018-12-13T12:52:02.023Z,14.20
2018-12-13T12:57:05.662Z,14.80
2018-12-13T13:02:09.497Z,15.00
2018-12-13T13:07:13.171Z,9.80
2018-12-13T13:12:16.960Z,13.75
2018-12-13T13:17:20.816Z,15.75
2018-12-13T13:22:24.982Z,10.25
2018-12-13T13:27:28.731Z,12.00
2018-12-13T13:32:32.248Z,11.00
2018-12-13T13:37:37.135Z,12.80
2018-12-13T13:42:40.698Z,12.75
2018-12-13T13:47:45.377Z,12.00
2018-12-13T13:52:48.882Z,10.75
2018-12-13T13:57:52.572Z,13.60
2018-12-13T14:02:56.758Z,10.20
2018-12-13T14:08:00.499Z,12.75
2018-12-13T14:13:04.030Z,11.80
2018-12-13T14:18:07.787Z,12.60
2018-12-13T14:23:11.488Z,13.75
2018-12-13T14:28:15.069Z,10.80
2018-12-13T14:33:18.806Z,15.25
2018-12-13T14:38:22.369Z,9.00
2018-12-13T14:43:26.264Z,9.75
2018-12-13T14:48:30.059Z,10.80
2018-12-13T14:53:33.670Z,9.50
2018-12-13T14:58:37.329Z,14.60
2018-12-13T15:03:41.120Z,9.60
2018-12-13T15:08:44.678Z,11.60
2018-12-13T15:13:48.122Z,10.20
2018-12-13T15:18:51.555Z,13.25
2018-12-13T15:23:55.073Z,11.50
2018-12-13T15:28:58.470Z,10.75
2018-12-13T15:34:01.904Z,9.00
2018-12-13T15:39:07.134Z,12.50
2018-12-13T15:44:10.454Z,8.25
2018-12-13T15:49:13.806Z,10.00
2018-12-13T15:54:17.158Z,8.75
2018-12-13T15:59:20.499Z,9.80
2018-12-13T16:04:23.898Z,10.40
2018-12-13T16:09:30.211Z,10.25
2018-12-13T16:14:34.052Z,10.00
2018-12-13T16:19:37.551Z,8.75
2018-12-13T16:35:49.239Z,10.75
2018-12-13T16:46:21.180Z,9.20
2018-12-13T16:56:32.033Z,9.20
2018-12-13T17:01:35.509Z,10.80
2018-12-13T17:06:39.228Z,9.40
2018-12-13T17:11:42.668Z,8.00
2018-12-13T17:16:46.021Z,6.40
2018-12-13T17:21:49.513Z,7.75
2018-12-13T17:26:52.863Z,10.00
2018-12-13T17:31:56.217Z,13.75
2018-12-13T17:36:59.631Z,8.40
2018-12-13T17:42:03.920Z,10.25
2018-12-13T17:47:07.708Z,9.00
2018-12-13T17:52:11.202Z,8.75
2018-12-13T17:57:15.697Z,8.00
2018-12-13T18:02:19.734Z,9.40
2018-12-13T18:07:23.387Z,8.50
2018-12-13T18:12:27.120Z,9.00
2018-12-13T18:17:31.605Z,9.00
2018-12-13T18:22:35.336Z,11.50
2018-12-13T18:27:39.491Z,7.20
2018-12-13T18:32:44.453Z,8.60
2018-12-13T18:37:48.379Z,10.25
2018-12-13T18:42:52.187Z,5.20
2018-12-13T18:47:56.916Z,7.75
2018-12-13T18:53:00.666Z,7.00
2018-12-13T18:58:04.572Z,7.25
2018-12-13T19:03:08.305Z,8.50
2018-12-13T19:08:12.051Z,9.20
2018-12-13T19:13:16.115Z,7.75
2018-12-13T19:18:20.057Z,7.00
2018-12-13T19:23:23.910Z,7.75
2018-12-13T19:28:27.892Z,7.00
2018-12-13T19:33:31.923Z,10.00
2018-12-13T19:38:35.740Z,8.40
2018-12-13T19:43:40.998Z,8.50
2018-12-13T19:48:45.257Z,8.25
2018-12-13T19:53:49.308Z,9.50
2018-12-13T19:58:53.543Z,9.80
2018-12-13T20:03:58.108Z,6.00
2018-12-13T20:09:01.839Z,6.00
2018-12-13T20:14:05.666Z,10.20
2018-12-13T20:19:09.250Z,8.25
2018-12-13T20:24:12.715Z,12.80
2018-12-13T20:29:16.078Z,17.80
2018-12-13T20:34:19.470Z,18.25
2018-12-13T20:39:23.066Z,13.50
2018-12-13T20:44:26.416Z,13.75
2018-12-13T20:49:30.117Z,10.60
2018-12-13T20:54:33.778Z,10.50
2018-12-13T20:59:37.428Z,10.80
2018-12-13T21:04:41.052Z,12.75
2018-12-13T21:09:44.448Z,10.00
2018-12-13T21:14:48.240Z,12.75
2018-12-13T21:19:51.970Z,9.80
2018-12-13T21:24:55.463Z,10.75
2018-12-13T21:29:58.845Z,9.60
2018-12-13T21:35:02.784Z,9.50
2018-12-13T21:40:07.130Z,9.40
2018-12-13T21:45:10.717Z,9.83
2018-12-13T21:50:14.309Z,11.75
2018-12-13T21:55:17.768Z,9.75
2018-12-13T22:00:21.334Z,10.60
2018-12-13T22:05:24.737Z,11.40
2018-12-13T22:10:28.807Z,10.00
2018-12-13T22:15:32.369Z,13.00
2018-12-13T22:20:36.019Z,10.20
2018-12-13T22:25:39.726Z,11.00
2018-12-13T22:30:43.629Z,9.20
2018-12-13T22:35:47.356Z,8.80
2018-12-13T22:40:50.886Z,8.80
2018-12-13T22:45:55.162Z,9.50
2018-12-13T22:50:58.783Z,10.80
2018-12-13T22:56:02.463Z,12.50
2018-12-13T23:01:06.389Z,9.40
2018-12-13T23:06:10.249Z,10.00
2018-12-13T23:11:14.122Z,8.40
2018-12-13T23:16:17.791Z,8.50
2018-12-13T23:21:21.619Z,10.00
2018-12-13T23:26:25.193Z,8.50
2018-12-13T23:31:28.877Z,7.20
2018-12-13T23:36:32.545Z,10.75
2018-12-13T23:41:39.185Z,8.60
2018-12-13T23:46:41.997Z,11.00
2018-12-13T23:51:45.867Z,9.00
2018-12-13T23:56:49.554Z,8.00
